createdAt,value
2023-09-10T00:04:49.021Z,23.38
2023-09-10T00:19:36.064Z,23.02
2023-09-10T00:22:20.434Z,23.06
2023-09-10T00:25:07.594Z,23.02
2023-09-10T00:30:43.985Z,23.24
2023-09-10T00:33:19.303Z,23.25
2023-09-10T00:36:06.894Z,23.29
2023-09-10T00:41:42.797Z,23.40
2023-09-10T00:47:01.103Z,23.02
2023-09-10T00:49:31.955Z,22.84
2023-09-10T00:52:07.087Z,22.90
2023-09-10T00:54:39.999Z,22.84
2023-09-10T00:59:56.214Z,22.72
2023-09-10T01:02:25.967Z,22.69
2023-09-10T01:04:57.241Z,22.71
2023-09-10T01:07:29.972Z,22.81
2023-09-10T01:09:59.904Z,22.95
2023-09-10T01:12:50.841Z,22.96
2023-09-10T01:15:23.351Z,23.09
2023-09-10T01:21:09.096Z,23.29
2023-09-10T01:27:33.577Z,23.15
2023-09-10T01:33:37.926Z,22.88
2023-09-10T01:36:20.040Z,22.76
2023-09-10T01:39:12.121Z,22.93
2023-09-10T01:41:55.287Z,22.78
2023-09-10T01:44:45.888Z,22.69
2023-09-10T01:47:21.007Z,22.65
2023-09-10T01:49:53.740Z,22.72
2023-09-10T01:52:26.435Z,22.80
2023-09-10T01:54:56.871Z,22.79
2023-09-10T01:57:27.837Z,22.71
2023-09-10T02:00:13.262Z,22.75
2023-09-10T02:02:44.943Z,22.71
2023-09-10T02:05:16.116Z,22.84
2023-09-10T02:07:53.166Z,22.91
2023-09-10T02:10:22.956Z,22.68
2023-09-10T02:12:53.652Z,22.57
2023-09-10T02:15:23.143Z,22.44
2023-09-10T02:17:55.026Z,22.39
2023-09-10T02:20:24.847Z,22.34
2023-09-10T02:22:54.544Z,22.57
2023-09-10T02:25:24.199Z,22.56
2023-09-10T02:27:53.052Z,22.71
2023-09-10T02:30:22.194Z,22.64
2023-09-10T02:32:53.426Z,22.65
2023-09-10T02:35:23.936Z,22.57
2023-09-10T02:37:53.142Z,22.47
2023-09-10T02:40:23.660Z,22.40
2023-09-10T02:42:54.183Z,22.42
2023-09-10T02:45:33.844Z,22.35
2023-09-10T02:48:03.081Z,22.22
2023-09-10T02:50:32.117Z,22.19
2023-09-10T02:53:01.900Z,22.28
2023-09-10T02:55:30.935Z,22.28
2023-09-10T02:57:59.668Z,22.35
2023-09-10T03:00:29.424Z,22.34
2023-09-10T03:02:59.321Z,22.10
2023-09-10T03:05:33.209Z,22.13
2023-09-10T03:08:03.619Z,22.20
2023-09-10T03:10:33.989Z,22.16
2023-09-10T03:13:03.425Z,22.21
2023-09-10T03:15:33.371Z,22.28
2023-09-10T03:18:03.273Z,22.15
2023-09-10T03:20:33.335Z,22.14
2023-09-10T03:23:03.664Z,22.10
2023-09-10T03:25:37.169Z,22.13
2023-09-10T03:28:08.503Z,22.17
2023-09-10T03:30:38.417Z,22.18
2023-09-10T03:33:07.663Z,22.19
2023-09-10T03:35:36.987Z,22.12
2023-09-10T03:38:07.003Z,22.00
2023-09-10T03:40:37.399Z,21.89
2023-09-10T03:43:08.150Z,21.94
2023-09-10T03:45:37.805Z,21.85
2023-09-10T03:48:07.316Z,21.82
2023-09-10T03:50:37.813Z,21.89
2023-09-10T03:53:08.596Z,21.94
2023-09-10T03:55:37.975Z,21.69
2023-09-10T03:58:08.307Z,21.58
2023-09-10T04:00:39.150Z,21.35
2023-09-10T04:03:09.885Z,21.29
2023-09-10T04:05:41.716Z,21.43
2023-09-10T04:08:11.613Z,21.44
2023-09-10T04:10:42.340Z,21.44
2023-09-10T04:13:11.835Z,21.41
2023-09-10T04:15:41.053Z,21.35
2023-09-10T04:18:10.665Z,21.40
2023-09-10T04:20:40.830Z,21.42
2023-09-10T04:23:10.213Z,21.31
2023-09-10T04:25:40.053Z,21.17
2023-09-10T04:28:10.213Z,21.21
2023-09-10T04:30:41.235Z,21.32
2023-09-10T04:33:10.423Z,21.19
2023-09-10T04:35:50.343Z,21.07
2023-09-10T04:38:21.867Z,21.17
2023-09-10T04:40:52.483Z,21.30
2023-09-10T04:43:22.089Z,21.50
2023-09-10T04:45:50.841Z,21.57
2023-09-10T04:48:20.287Z,21.78
2023-09-10T04:50:50.068Z,21.90
2023-09-10T04:53:19.803Z,21.96
2023-09-10T04:55:56.767Z,22.04
2023-09-10T04:58:28.102Z,22.02
2023-09-10T05:00:57.844Z,22.10
2023-09-10T05:03:28.260Z,22.12
2023-09-10T05:06:02.292Z,22.16
2023-09-10T05:08:31.574Z,22.33
2023-09-10T05:11:02.835Z,22.33
2023-09-10T05:13:34.818Z,22.45
2023-09-10T05:16:04.441Z,22.54
2023-09-10T05:18:35.155Z,22.59
2023-09-10T05:21:05.484Z,22.73
2023-09-10T05:23:36.938Z,22.79
2023-09-10T05:26:15.777Z,22.80
2023-09-10T05:28:50.173Z,22.93
2023-09-10T05:31:33.627Z,23.10
2023-09-10T05:34:05.606Z,23.19
2023-09-10T05:36:41.820Z,23.31
2023-09-10T05:39:38.899Z,23.20
2023-09-10T05:42:27.474Z,23.31
2023-09-10T05:45:10.559Z,23.55
2023-09-10T05:47:46.614Z,23.71
2023-09-10T05:50:32.514Z,23.69
2023-09-10T05:55:58.754Z,23.86
2023-09-10T05:58:49.670Z,23.87
2023-09-10T06:01:42.683Z,23.94
2023-09-10T06:04:52.338Z,24.26
2023-09-10T06:11:23.341Z,24.24
2023-09-10T06:14:05.698Z,24.29
2023-09-10T06:20:14.339Z,24.51
2023-09-10T06:22:59.856Z,24.70
2023-09-10T06:25:43.735Z,24.66
2023-09-10T06:32:03.304Z,25.04
2023-09-10T06:34:59.091Z,25.27
2023-09-10T06:37:32.713Z,25.21
2023-09-10T06:40:03.037Z,25.31
2023-09-10T06:42:33.242Z,25.69
2023-09-10T06:45:11.372Z,25.97
2023-09-10T06:47:40.090Z,26.22
2023-09-10T06:50:09.107Z,26.49
2023-09-10T06:52:38.341Z,26.61
2023-09-10T06:55:07.412Z,26.94
2023-09-10T06:57:36.535Z,26.86
2023-09-10T07:00:05.423Z,27.16
2023-09-10T07:02:34.510Z,27.22
2023-09-10T07:05:04.243Z,27.57
2023-09-10T07:07:32.806Z,27.80
2023-09-10T07:10:01.869Z,27.98
2023-09-10T07:12:31.003Z,28.02
2023-09-10T07:14:59.680Z,28.07
2023-09-10T07:17:28.911Z,28.46
2023-09-10T07:19:57.656Z,28.58
2023-09-10T07:22:26.687Z,28.74
2023-09-10T07:24:55.786Z,28.92
2023-09-10T07:27:24.260Z,29.04
2023-09-10T07:29:52.855Z,29.26
2023-09-10T07:32:21.409Z,29.41
2023-09-10T07:34:50.450Z,29.69
2023-09-10T07:37:19.658Z,29.97
2023-09-10T07:39:48.932Z,29.56
2023-09-10T07:42:17.545Z,29.96
2023-09-10T07:44:46.070Z,30.24
2023-09-10T07:47:14.819Z,30.26
2023-09-10T07:49:43.964Z,30.09
2023-09-10T07:52:13.001Z,30.27
2023-09-10T07:54:43.741Z,30.37
2023-09-10T07:57:14.998Z,30.71
2023-09-10T07:59:45.902Z,30.86
2023-09-10T08:02:15.074Z,30.81
2023-09-10T08:04:45.903Z,30.80
2023-09-10T08:07:16.579Z,31.25
2023-09-10T08:09:45.784Z,31.40
2023-09-10T08:12:14.945Z,31.28
2023-09-10T08:14:44.226Z,31.36
2023-09-10T08:17:13.923Z,31.43
2023-09-10T08:19:43.866Z,31.40
2023-09-10T08:22:12.976Z,31.75
2023-09-10T08:24:42.584Z,32.11
2023-09-10T08:27:13.951Z,32.35
2023-09-10T08:29:43.050Z,32.42
2023-09-10T08:32:14.429Z,32.48
2023-09-10T08:34:45.581Z,32.52
2023-09-10T08:37:14.517Z,32.72
2023-09-10T08:39:43.291Z,32.93
2023-09-10T08:42:27.168Z,33.23
2023-09-10T08:44:58.256Z,33.10
2023-09-10T08:47:34.533Z,33.14
2023-09-10T08:50:13.309Z,33.07
2023-09-10T08:52:49.911Z,33.63
2023-09-10T08:55:20.957Z,33.74
2023-09-10T08:57:52.876Z,33.79
2023-09-10T09:00:23.716Z,34.30
2023-09-10T09:02:54.793Z,34.37
2023-09-10T09:05:28.765Z,34.07
2023-09-10T09:08:05.570Z,33.77
2023-09-10T09:10:35.384Z,34.01
2023-09-10T09:13:11.424Z,34.10
2023-09-10T09:15:41.093Z,34.33
2023-09-10T09:18:15.954Z,34.07
2023-09-10T09:20:52.354Z,33.29
2023-09-10T09:23:33.797Z,33.47
2023-09-10T09:26:03.668Z,33.55
2023-09-10T09:28:35.255Z,33.92
2023-09-10T09:31:12.106Z,33.54
2023-09-10T09:33:46.756Z,33.63
2023-09-10T09:36:15.562Z,34.02
2023-09-10T09:38:48.399Z,34.53
2023-09-10T09:41:18.263Z,34.23
2023-09-10T09:43:47.713Z,34.61
2023-09-10T09:46:17.823Z,35.01
2023-09-10T09:48:48.120Z,34.98
2023-09-10T09:51:18.058Z,34.63
2023-09-10T09:53:47.731Z,34.85
2023-09-10T09:56:19.105Z,35.22
2023-09-10T09:58:47.912Z,34.74
2023-09-10T10:01:17.294Z,34.83
2023-09-10T10:03:47.014Z,35.13
2023-09-10T10:06:17.966Z,34.81
2023-09-10T10:08:51.625Z,35.59
2023-09-10T10:11:33.788Z,36.03
2023-09-10T10:14:05.065Z,36.19
2023-09-10T10:16:34.597Z,36.01
2023-09-10T10:19:05.174Z,36.23
2023-09-10T10:21:34.111Z,36.60
2023-09-10T10:24:04.579Z,36.98
2023-09-10T10:26:35.439Z,37.26
2023-09-10T10:29:05.628Z,37.50
2023-09-10T10:31:38.346Z,36.29
2023-09-10T10:34:10.890Z,36.01
2023-09-10T10:37:04.749Z,35.86
2023-09-10T10:39:43.180Z,36.44
2023-09-10T10:42:17.436Z,36.25
2023-09-10T10:44:47.205Z,36.02
2023-09-10T10:47:23.572Z,36.10
2023-09-10T10:49:57.780Z,36.13
2023-09-10T10:52:32.190Z,36.14
2023-09-10T10:55:01.563Z,36.61
2023-09-10T10:57:31.227Z,36.88
2023-09-10T11:00:02.909Z,36.92
2023-09-10T11:02:32.577Z,36.52
2023-09-10T11:05:06.173Z,35.88
2023-09-10T11:07:36.612Z,36.59
2023-09-10T11:10:28.773Z,37.03
2023-09-10T11:13:07.782Z,36.37
2023-09-10T11:15:37.747Z,36.09
2023-09-10T11:18:38.776Z,36.66
2023-09-10T11:21:16.725Z,37.07
2023-09-10T11:23:53.265Z,36.83
2023-09-10T11:26:21.805Z,36.90
2023-09-10T11:28:56.200Z,37.05
2023-09-10T11:31:40.469Z,37.86
2023-09-10T11:34:21.694Z,37.50
2023-09-10T11:37:03.684Z,37.93
2023-09-10T11:39:34.210Z,38.58
2023-09-10T11:42:06.420Z,37.89
2023-09-10T11:44:36.734Z,38.29
2023-09-10T11:47:07.087Z,39.12
2023-09-10T11:49:35.891Z,39.63
2023-09-10T11:52:05.295Z,39.33
2023-09-10T11:54:35.103Z,39.27
2023-09-10T11:57:05.093Z,39.20
2023-09-10T11:59:34.099Z,38.78
2023-09-10T12:02:04.825Z,39.11
2023-09-10T12:04:35.634Z,39.28
2023-09-10T12:07:05.568Z,40.04
2023-09-10T12:09:34.575Z,40.60
2023-09-10T12:12:16.412Z,41.01
2023-09-10T12:14:45.279Z,41.39
2023-09-10T12:17:14.259Z,41.73
2023-09-10T12:19:44.575Z,41.85
2023-09-10T12:22:16.252Z,41.70
2023-09-10T12:24:46.223Z,41.52
2023-09-10T12:27:14.878Z,40.80
2023-09-10T12:29:44.881Z,41.13
2023-09-10T12:32:14.401Z,41.37
2023-09-10T12:34:44.737Z,40.06
2023-09-10T12:37:16.816Z,39.82
2023-09-10T12:39:47.206Z,39.77
2023-09-10T12:42:16.689Z,41.21
2023-09-10T12:44:46.362Z,40.91
2023-09-10T12:47:15.694Z,41.62
2023-09-10T12:49:47.164Z,41.84
2023-09-10T12:52:17.129Z,41.82
2023-09-10T12:54:45.967Z,41.24
2023-09-10T12:57:15.053Z,41.97
2023-09-10T12:59:44.368Z,41.40
2023-09-10T13:02:13.157Z,41.62
2023-09-10T13:04:41.885Z,42.04
2023-09-10T13:07:14.166Z,41.35
2023-09-10T13:09:42.929Z,42.50
2023-09-10T13:12:12.293Z,42.77
2023-09-10T13:14:41.425Z,42.17
2023-09-10T13:17:12.075Z,40.90
2023-09-10T13:19:41.218Z,41.23
2023-09-10T13:22:09.945Z,41.83
2023-09-10T13:24:38.802Z,41.91
2023-09-10T13:27:08.292Z,41.21
2023-09-10T13:29:37.154Z,41.73
2023-09-10T13:32:07.375Z,40.66
2023-09-10T13:34:36.339Z,41.51
2023-09-10T13:37:05.189Z,42.00
2023-09-10T13:39:35.471Z,42.47
2023-09-10T13:42:05.277Z,42.83
2023-09-10T13:44:34.764Z,43.96
2023-09-10T13:47:05.049Z,43.79
2023-09-10T13:49:33.782Z,44.59
2023-09-10T13:52:03.105Z,45.07
2023-09-10T13:54:31.768Z,44.19
2023-09-10T13:57:00.354Z,44.07
2023-09-10T13:59:29.198Z,44.48
2023-09-10T14:01:59.303Z,45.10
2023-09-10T14:04:28.012Z,44.75
2023-09-10T14:06:56.721Z,44.58
2023-09-10T14:09:27.589Z,44.33
2023-09-10T14:11:56.412Z,44.58
2023-09-10T14:14:26.488Z,44.82
2023-09-10T14:16:55.139Z,43.88
2023-09-10T14:19:23.693Z,44.41
2023-09-10T14:21:52.451Z,45.89
2023-09-10T14:24:21.117Z,46.33
2023-09-10T14:26:49.787Z,46.57
2023-09-10T14:29:19.174Z,45.92
2023-09-10T14:31:48.026Z,45.28
2023-09-10T14:34:17.413Z,46.30
2023-09-10T14:36:46.161Z,45.95
2023-09-10T14:39:15.900Z,45.84
2023-09-10T14:41:44.977Z,45.70
2023-09-10T14:44:14.094Z,45.96
2023-09-10T14:46:42.901Z,45.90
2023-09-10T14:49:11.588Z,45.62
2023-09-10T14:51:40.255Z,46.84
2023-09-10T14:54:09.584Z,47.71
2023-09-10T14:56:38.466Z,48.02
2023-09-10T14:59:07.700Z,47.43
2023-09-10T15:01:37.059Z,47.38
2023-09-10T15:04:06.340Z,47.47
2023-09-10T15:06:35.080Z,48.01
2023-09-10T15:09:05.332Z,48.38
2023-09-10T15:11:34.544Z,47.78
2023-09-10T15:14:03.309Z,47.15
2023-09-10T15:16:32.641Z,47.29
2023-09-10T15:19:01.817Z,47.06
2023-09-10T15:21:30.370Z,47.35
2023-09-10T15:24:00.205Z,48.06
2023-09-10T15:26:29.039Z,48.20
2023-09-10T15:28:57.780Z,47.48
2023-09-10T15:31:27.199Z,47.42
2023-09-10T15:33:56.311Z,48.15
2023-09-10T15:36:25.416Z,48.66
2023-09-10T15:38:54.477Z,48.74
2023-09-10T15:41:23.200Z,48.86
2023-09-10T15:43:52.478Z,48.61
2023-09-10T15:46:21.494Z,46.45
2023-09-10T15:48:50.729Z,46.47
2023-09-10T15:51:20.382Z,47.19
2023-09-10T15:53:49.468Z,46.58
2023-09-10T15:56:18.108Z,46.35
2023-09-10T15:58:47.377Z,46.75
2023-09-10T16:01:16.149Z,47.09
2023-09-10T16:03:46.249Z,46.80
2023-09-10T16:06:15.215Z,46.87
2023-09-10T16:08:43.993Z,46.97
2023-09-10T16:11:13.702Z,47.05
2023-09-10T16:13:44.560Z,46.94
2023-09-10T16:16:13.122Z,46.82
2023-09-10T16:18:42.358Z,46.60
2023-09-10T16:21:11.032Z,46.20
2023-09-10T16:23:40.051Z,45.56
2023-09-10T16:26:09.090Z,45.04
2023-09-10T16:28:38.418Z,44.41
2023-09-10T16:31:11.267Z,44.40
2023-09-10T16:33:40.288Z,43.92
2023-09-10T16:36:09.316Z,43.61
2023-09-10T16:38:38.016Z,43.31
2023-09-10T16:41:06.680Z,42.96
2023-09-10T16:43:35.286Z,42.51
2023-09-10T16:46:04.468Z,42.28
2023-09-10T16:48:33.167Z,41.96
2023-09-10T16:51:01.851Z,41.35
2023-09-10T16:53:30.640Z,40.19
2023-09-10T16:55:59.936Z,38.96
2023-09-10T16:58:28.644Z,37.67
2023-09-10T17:00:57.454Z,36.70
2023-09-10T17:03:27.911Z,36.27
2023-09-10T17:05:57.981Z,35.90
2023-09-10T17:08:27.246Z,35.41
2023-09-10T17:10:58.320Z,34.98
2023-09-10T17:13:27.161Z,34.54
2023-09-10T17:16:09.056Z,34.18
2023-09-10T17:18:39.281Z,33.67
2023-09-10T17:21:10.660Z,33.29
2023-09-10T17:23:39.467Z,32.88
2023-09-10T17:26:12.159Z,32.44
2023-09-10T17:28:41.808Z,32.22
2023-09-10T17:31:10.469Z,31.31
2023-09-10T17:33:39.417Z,30.90
2023-09-10T17:36:09.215Z,30.69
2023-09-10T17:38:39.043Z,30.52
2023-09-10T17:41:08.779Z,30.13
2023-09-10T17:43:38.186Z,29.96
2023-09-10T17:46:08.263Z,29.57
2023-09-10T17:48:38.191Z,29.18
2023-09-10T17:51:08.152Z,28.94
2023-09-10T17:53:37.351Z,28.66
2023-09-10T17:56:07.821Z,28.51
2023-09-10T17:58:38.726Z,28.72
2023-09-10T18:01:08.720Z,28.93
2023-09-10T18:03:39.395Z,28.79
2023-09-10T18:06:09.388Z,28.84
2023-09-10T18:08:38.397Z,28.60
2023-09-10T18:11:08.372Z,28.40
2023-09-10T18:13:40.674Z,28.28
2023-09-10T18:16:10.734Z,28.04
2023-09-10T18:18:40.417Z,27.95
2023-09-10T18:21:11.422Z,27.63
2023-09-10T18:23:40.674Z,27.25
2023-09-10T18:26:11.535Z,27.07
2023-09-10T18:28:40.797Z,27.38
2023-09-10T18:31:09.515Z,27.33
2023-09-10T18:33:39.234Z,27.08
2023-09-10T18:36:09.041Z,27.00
2023-09-10T18:38:43.370Z,27.09
2023-09-10T18:41:12.081Z,27.17
2023-09-10T18:43:41.131Z,27.17
2023-09-10T18:46:10.008Z,26.89
2023-09-10T18:48:39.443Z,26.66
2023-09-10T18:51:08.611Z,26.79
2023-09-10T18:53:37.291Z,26.62
2023-09-10T18:56:06.449Z,26.51
2023-09-10T18:58:35.562Z,26.46
2023-09-10T19:01:04.314Z,26.58
2023-09-10T19:03:33.902Z,26.64
2023-09-10T19:06:03.268Z,26.44
2023-09-10T19:08:32.522Z,26.07
2023-09-10T19:11:01.209Z,26.18
2023-09-10T19:13:30.158Z,26.58
2023-09-10T19:16:01.997Z,26.33
2023-09-10T19:18:31.524Z,26.16
2023-09-10T19:21:00.680Z,25.96
2023-09-10T19:23:29.512Z,25.79
2023-09-10T19:25:58.232Z,25.72
2023-09-10T19:28:27.209Z,25.60
2023-09-10T19:30:56.158Z,25.73
2023-09-10T19:33:25.415Z,25.75
2023-09-10T19:35:54.128Z,25.92
2023-09-10T19:38:24.035Z,25.82
2023-09-10T19:40:53.312Z,25.65
2023-09-10T19:43:23.195Z,25.26
2023-09-10T19:45:56.194Z,25.36
2023-09-10T19:48:25.311Z,25.57
2023-09-10T19:51:03.038Z,25.87
2023-09-10T19:53:31.770Z,25.95
2023-09-10T19:56:01.907Z,25.44
2023-09-10T19:58:34.125Z,25.25
2023-09-10T20:01:02.803Z,25.26
2023-09-10T20:03:32.415Z,25.15
2023-09-10T20:06:01.103Z,25.03
2023-09-10T20:08:29.799Z,25.24
2023-09-10T20:10:58.504Z,25.35
2023-09-10T20:13:27.052Z,25.16
2023-09-10T20:15:55.552Z,25.28
2023-09-10T20:18:24.236Z,25.03
2023-09-10T20:20:52.952Z,24.90
2023-09-10T20:23:21.711Z,24.95
2023-09-10T20:25:51.763Z,25.12
2023-09-10T20:28:20.327Z,25.08
2023-09-10T20:30:48.897Z,25.19
2023-09-10T20:33:17.713Z,25.00
2023-09-10T20:35:46.762Z,24.79
2023-09-10T20:38:15.447Z,24.95
2023-09-10T20:40:44.178Z,25.06
2023-09-10T20:43:13.092Z,25.15
2023-09-10T20:45:41.696Z,25.32
2023-09-10T20:48:10.537Z,25.09
2023-09-10T20:50:39.174Z,24.79
2023-09-10T20:53:07.939Z,24.86
2023-09-10T20:55:36.529Z,24.97
2023-09-10T20:58:05.344Z,24.78
2023-09-10T21:00:33.961Z,24.75
2023-09-10T21:03:13.722Z,24.58
2023-09-10T21:05:50.922Z,24.78
2023-09-10T21:08:19.921Z,24.93
2023-09-10T21:10:48.583Z,25.03
2023-09-10T21:13:17.192Z,24.73
2023-09-10T21:15:45.867Z,24.22
2023-09-10T21:18:16.139Z,24.66
2023-09-10T21:20:44.964Z,24.74
2023-09-10T21:23:14.064Z,24.47
2023-09-10T21:25:44.645Z,24.48
2023-09-10T21:28:14.260Z,24.36
2023-09-10T21:30:42.948Z,24.25
2023-09-10T21:33:11.628Z,24.30
2023-09-10T21:35:47.889Z,23.80
2023-09-10T21:38:24.709Z,23.89
2023-09-10T21:41:02.238Z,24.00
2023-09-10T21:44:13.571Z,24.15
2023-09-10T21:47:44.384Z,24.22
2023-09-10T21:50:41.472Z,24.09
2023-09-10T21:53:13.054Z,24.19
2023-09-10T21:56:58.967Z,23.79
2023-09-10T22:00:17.111Z,23.88
2023-09-10T22:11:32.301Z,23.61
2023-09-10T22:15:06.814Z,23.76
2023-09-10T22:17:48.334Z,23.60
2023-09-10T22:41:15.706Z,23.41
2023-09-10T22:51:03.169Z,23.08
2023-09-10T23:54:03.500Z,22.75
